Time;durP1;ratioP1;P1;durP2;ratioP2;P2;SDS_P1;SDS_P2;PMS_P1;PMS_P2;Temp;Humidity;BMP_temperature;BMP_pressure;BME280_temperature;BME280_humidity;BME280_pressure;Samples;Min_cycle;Max_cycle;Signal;HPM_P1;HPM_P2
2023/10/16 00:01:21;;;;;;;;;4.40;4.40;;;;;5.67;75.49;99742.91;5152920;27;8986;-73
2023/10/16 00:03:50;;;;;;;;;5.20;5.20;;;;;5.82;75.08;99755.09;5152670;27;8935;-72
2023/10/16 00:06:19;;;;;;;;;5.80;5.80;;;;;5.85;75.07;99745.56;5137037;27;8902;-74
2023/10/16 00:08:48;;;;;;;;;5.20;5.20;;;;;5.64;74.85;99753.31;5132140;27;8890;-73
2023/10/16 00:11:23;;;;;;;;;6.40;6.40;;;;;5.70;75.24;99748.13;5113789;27;8881;-73
2023/10/16 00:13:52;;;;;;;;;6.60;6.60;;;;;5.72;75.07;99756.84;5135090;27;8969;-74
2023/10/16 00:16:23;;;;;;;;;6.00;6.00;;;;;5.83;74.78;99754.22;5151852;27;8863;-74
2023/10/16 00:18:53;;;;;;;;;7.60;5.40;;;;;5.75;75.33;99762.03;5153336;27;8859;-75
2023/10/16 00:21:24;;;;;;;;;6.00;6.00;;;;;5.80;75.52;99762.06;5136731;27;8834;-76
2023/10/16 00:23:55;;;;;;;;;9.00;6.40;;;;;5.81;75.04;99753.34;5131993;27;8853;-75
2023/10/16 00:26:25;;;;;;;;;8.00;7.00;;;;;5.58;75.95;99766.34;5113439;27;8872;-71
2023/10/16 00:29:07;;;;;;;;;4.20;4.20;;;;;5.73;76.05;99758.56;5131246;27;8838;-77
2023/10/16 00:31:42;;;;;;;;;7.20;7.20;;;;;5.68;75.65;99774.22;5151305;27;8831;-77
2023/10/16 00:34:19;;;;;;;;;8.00;7.20;;;;;6.04;74.26;99766.44;5130268;27;8838;-73
2023/10/16 00:36:49;;;;;;;;;8.20;7.20;;;;;5.79;75.24;99771.59;5113414;27;8830;-74
2023/10/16 00:39:20;;;;;;;;;7.00;7.00;;;;;5.99;74.39;99776.00;5122247;27;8843;-72
2023/10/16 00:41:50;;;;;;;;;5.00;4.00;;;;;5.79;75.14;99774.22;5133577;27;8843;-72
2023/10/16 00:44:22;;;;;;;;;6.00;5.80;;;;;5.79;75.40;99771.59;5113964;27;8894;-72
2023/10/16 00:46:54;;;;;;;;;6.60;6.20;;;;;5.91;74.40;99771.66;5132466;27;8832;-76
2023/10/16 00:49:23;;;;;;;;;7.00;6.00;;;;;6.28;72.57;99773.41;5151754;27;8828;-75
2023/10/16 00:51:54;;;;;;;;;6.00;6.00;;;;;6.06;73.86;99783.84;5147833;27;8849;-76
2023/10/16 00:54:28;;;;;;;;;11.80;9.20;;;;;6.42;71.77;99781.25;5112494;27;8857;-72
2023/10/16 00:57:00;;;;;;;;;7.20;6.80;;;;;6.66;71.42;99776.03;5112488;27;8847;-73
2023/10/16 00:59:29;;;;;;;;;8.60;7.60;;;;;6.82;71.03;99776.84;5131142;27;8848;-76
2023/10/16 01:02:12;;;;;;;;;9.40;7.40;;;;;6.70;72.04;99779.47;5131245;27;8827;-72
2023/10/16 01:04:41;;;;;;;;;7.20;7.20;;;;;6.86;71.02;99780.34;5082107;27;8998;-72
2023/10/16 01:07:14;;;;;;;;;8.40;7.00;;;;;6.83;71.04;99782.94;5112451;27;8837;-72
2023/10/16 01:09:46;;;;;;;;;8.00;8.00;;;;;7.14;70.04;99785.53;5066778;28;8844;-75
2023/10/16 01:12:20;;;;;;;;;6.40;6.40;;;;;6.36;72.36;99795.19;5050553;28;8832;-75
2023/10/16 01:14:49;;;;;;;;;7.00;6.80;;;;;6.36;73.27;99781.25;5068503;28;8877;-73
2023/10/16 01:17:29;;;;;;;;;8.00;8.00;;;;;6.46;72.48;99783.00;5085227;28;8814;-74
2023/10/16 01:19:59;;;;;;;;;0.80;0.80;;;;;6.83;71.73;99789.06;5087050;28;8861;-74
2023/10/16 01:22:34;;;;;;;;;7.60;6.40;;;;;6.80;72.00;99788.19;5086935;28;8934;-75
2023/10/16 01:25:08;;;;;;;;;11.60;9.00;;;;;6.92;71.73;99784.72;5057249;28;8948;-75
2023/10/16 01:27:38;;;;;;;;;7.80;7.80;;;;;6.99;71.30;99787.31;5050481;28;8944;-74
2023/10/16 01:30:09;;;;;;;;;8.20;7.40;;;;;6.80;71.51;99790.81;5049794;28;8931;-74
2023/10/16 01:32:39;;;;;;;;;9.40;9.00;;;;;6.64;72.15;99789.94;5061847;28;9624;-75
2023/10/16 01:35:09;;;;;;;;;9.80;8.60;;;;;6.21;74.50;99798.66;5049689;28;8848;-74
2023/10/16 01:37:39;;;;;;;;;7.60;7.60;;;;;6.52;73.02;99789.06;5066230;28;8987;-73
2023/10/16 01:40:17;;;;;;;;;9.20;7.00;;;;;6.55;73.43;99798.66;5059636;27;8879;-75
2023/10/16 01:42:46;;;;;;;;;9.40;7.80;;;;;6.87;72.69;99795.13;5096836;27;8861;-71
2023/10/16 01:45:15;;;;;;;;;8.60;7.60;;;;;6.73;73.21;99794.28;5129761;27;8868;-78
2023/10/16 01:47:44;;;;;;;;;12.80;11.80;;;;;6.53;73.00;99800.41;5131840;27;8864;-73
2023/10/16 01:50:21;;;;;;;;;13.00;13.00;;;;;6.21;74.39;99809.09;5132099;27;8855;-74
2023/10/16 01:52:50;;;;;;;;;10.00;9.40;;;;;6.51;74.19;99802.13;5132243;27;8877;-72
2023/10/16 01:55:21;;;;;;;;;13.20;11.40;;;;;6.69;73.19;99803.88;5150327;27;8855;-72
2023/10/16 01:57:50;;;;;;;;;9.80;9.80;;;;;6.68;72.65;99804.72;5150953;27;8916;-76
2023/10/16 02:00:26;;;;;;;;;10.00;9.20;;;;;7.06;71.87;99807.34;5131902;27;8847;-75
2023/10/16 02:02:57;;;;;;;;;12.00;11.40;;;;;7.23;70.67;99814.25;5129703;27;8848;-73
2023/10/16 02:05:27;;;;;;;;;16.00;13.20;;;;;6.95;70.50;99814.31;5128146;27;8859;-73
2023/10/16 02:07:57;;;;;;;;;18.80;15.20;;;;;6.42;73.30;99820.44;5111187;27;8874;-73
2023/10/16 02:10:27;;;;;;;;;13.60;13.00;;;;;6.54;74.50;99822.16;5129798;27;8855;-75
2023/10/16 02:12:57;;;;;;;;;14.60;13.00;;;;;7.01;71.89;99822.16;5129316;27;8836;-73
2023/10/16 02:15:25;;;;;;;;;18.00;15.20;;;;;7.26;71.53;99827.31;5111160;27;8977;-75
2023/10/16 02:17:56;;;;;;;;;12.00;12.00;;;;;7.09;71.30;99827.34;5112716;27;9690;-74
2023/10/16 02:20:26;;;;;;;;;16.40;15.00;;;;;7.08;71.65;99826.50;5110828;27;8873;-74
2023/10/16 02:22:56;;;;;;;;;13.40;13.40;;;;;7.23;70.60;99815.13;5111120;27;8845;-74
2023/10/16 02:25:24;;;;;;;;;15.00;14.60;;;;;6.76;72.17;99823.91;5131468;27;8884;-72
2023/10/16 02:27:55;;;;;;;;;17.40;13.80;;;;;7.03;71.42;99825.63;5111239;27;8826;-76
2023/10/16 02:30:35;;;;;;;;;15.00;12.20;;;;;7.00;71.64;99832.59;5076725;27;8922;-73
2023/10/16 02:33:15;;;;;;;;;11.60;11.60;;;;;6.97;72.12;99825.66;5131449;27;8835;-73
2023/10/16 02:35:48;;;;;;;;;14.60;14.60;;;;;6.78;72.04;99823.91;5150048;27;8930;-77
2023/10/16 02:38:27;;;;;;;;;15.40;14.40;;;;;6.88;71.49;99833.47;5130877;27;8867;-71
2023/10/16 02:41:03;;;;;;;;;14.40;13.00;;;;;6.76;72.99;99846.53;5104638;28;8823;-73
2023/10/16 02:43:37;;;;;;;;;15.00;15.00;;;;;6.71;72.13;99852.63;5105843;28;9581;-73
2023/10/16 02:46:08;;;;;;;;;18.40;17.00;;;;;6.24;73.76;99858.69;5057658;28;9780;-73
2023/10/16 02:48:41;;;;;;;;;15.00;14.00;;;;;5.89;75.92;99859.47;5105784;28;8847;-77
2023/10/16 02:51:10;;;;;;;;;7.80;7.80;;;;;5.77;76.90;99862.03;5077904;28;9655;-75
2023/10/16 02:53:41;;;;;;;;;16.80;14.80;;;;;5.79;76.79;99872.47;5068679;28;8838;-72
2023/10/16 02:56:14;;;;;;;;;13.20;12.20;;;;;5.70;78.06;99860.28;5077920;28;8913;-75
2023/10/16 02:58:46;;;;;;;;;18.60;16.20;;;;;5.70;77.85;99874.19;5088338;28;8832;-75
2023/10/16 03:01:18;;;;;;;;;18.20;18.20;;;;;5.69;77.36;99868.97;5073234;28;8943;-73
2023/10/16 03:03:48;;;;;;;;;16.80;15.00;;;;;5.65;77.84;99869.81;5105936;28;9600;-71
2023/10/16 03:06:18;;;;;;;;;16.80;15.80;;;;;5.87;76.98;99876.88;5088131;28;8856;-74
2023/10/16 03:08:49;;;;;;;;;18.60;15.00;;;;;5.89;76.52;99871.66;5105127;28;8843;-72
2023/10/16 03:11:20;;;;;;;;;12.60;12.60;;;;;5.92;76.71;99866.44;5089803;27;8861;-75
2023/10/16 03:13:51;;;;;;;;;14.80;14.80;;;;;5.97;75.80;99866.47;5097150;27;8874;-73
2023/10/16 03:16:23;;;;;;;;;16.20;14.60;;;;;5.95;75.98;99870.81;5149245;27;8935;-75
2023/10/16 03:19:03;;;;;;;;;18.80;16.60;;;;;6.02;75.62;99875.16;5095753;27;9704;-73
2023/10/16 03:21:34;;;;;;;;;16.80;16.80;;;;;5.74;76.62;99885.50;5149497;27;8870;-72
2023/10/16 03:24:07;;;;;;;;;17.20;15.60;;;;;5.79;77.13;99882.91;5097714;27;8885;-75
2023/10/16 03:26:42;;;;;;;;;17.00;15.20;;;;;6.15;75.10;99882.16;5089975;27;8880;-73
2023/10/16 03:29:12;;;;;;;;;28.80;27.80;;;;;5.86;76.32;99885.53;5126779;27;8972;-74
2023/10/16 03:31:41;;;;;;;;;35.00;32.25;;;;;6.06;75.13;99888.25;5128473;27;8842;-73
2023/10/16 03:34:12;;;;;;;;;18.60;15.20;;;;;6.02;74.73;99882.97;5110150;27;8845;-72
2023/10/16 03:36:41;;;;;;;;;18.40;17.80;;;;;5.70;76.01;99900.28;5110756;27;8841;-73
2023/10/16 03:39:16;;;;;;;;;16.40;12.60;;;;;5.71;75.61;99901.13;5128675;27;8869;-76
2023/10/16 03:41:44;;;;;;;;;18.00;18.00;;;;;5.99;75.25;99896.03;5132856;27;8851;-71
2023/10/16 03:44:17;;;;;;;;;17.60;17.00;;;;;6.10;74.80;99895.19;5148923;27;9580;-74
2023/10/16 03:46:46;;;;;;;;;18.20;17.80;;;;;5.99;74.69;99896.03;5077734;27;8977;-76
2023/10/16 03:49:15;;;;;;;;;19.20;17.40;;;;;6.05;74.79;99888.22;5128553;27;8845;-76
2023/10/16 03:51:46;;;;;;;;;20.00;19.20;;;;;6.02;74.00;99889.09;5133607;27;8964;-73
2023/10/16 03:54:16;;;;;;;;;26.00;24.00;;;;;6.04;73.92;99894.28;5132079;27;9007;-71
2023/10/16 03:56:45;;;;;;;;;17.60;16.00;;;;;6.10;73.67;99895.19;5132129;27;8949;-73
2023/10/16 03:59:16;;;;;;;;;23.60;19.60;;;;;5.78;75.30;99905.53;5096407;27;8841;-75
2023/10/16 04:01:45;;;;;;;;;20.80;20.80;;;;;6.01;75.24;99908.22;5078932;27;8864;-73
2023/10/16 04:04:15;;;;;;;;;22.00;20.00;;;;;6.25;74.08;99914.41;5131599;27;8829;-72
2023/10/16 04:06:44;;;;;;;;;28.20;23.80;;;;;5.83;74.84;99916.84;5143386;27;8870;-76
2023/10/16 04:09:14;;;;;;;;;23.80;23.40;;;;;6.16;74.60;99904.78;5153000;27;8858;-73
2023/10/16 04:11:48;;;;;;;;;22.00;22.00;;;;;6.44;73.34;99905.72;5141808;27;8875;-75
2023/10/16 04:14:19;;;;;;;;;25.20;23.00;;;;;6.43;72.42;99908.31;5132079;27;8837;-72
2023/10/16 04:16:54;;;;;;;;;19.80;18.20;;;;;6.81;72.55;99910.97;5131842;27;8861;-76
2023/10/16 04:19:36;;;;;;;;;25.60;25.40;;;;;6.87;72.12;99903.16;5131895;27;8884;-71
2023/10/16 04:22:08;;;;;;;;;26.20;24.60;;;;;6.95;71.24;99910.16;5133689;27;8880;-77
2023/10/16 04:24:45;;;;;;;;;27.20;27.20;;;;;6.98;70.53;99911.00;5113349;27;9699;-73
2023/10/16 04:27:29;;;;;;;;;6.20;5.40;;;;;7.15;70.56;99920.59;5134468;27;8865;-73
2023/10/16 04:33:13;;;;;;;;;29.00;25.80;;;;;7.08;69.94;99911.91;5131410;27;8900;-72
2023/10/16 04:38:31;;;;;;;;;27.00;27.00;;;;;7.19;69.45;99923.22;5131341;27;8864;-77
2023/10/16 04:44:22;;;;;;;;;23.40;21.60;;;;;7.28;69.05;99928.41;5130996;27;8837;-73
2023/10/16 04:49:36;;;;;;;;;28.20;25.40;;;;;6.65;70.84;99940.59;5060983;28;9055;-74
2023/10/16 04:52:14;;;;;;;;;24.80;24.40;;;;;6.18;73.02;99946.56;5078319;28;8972;-78
2023/10/16 04:55:02;;;;;;;;;27.00;24.80;;;;;6.15;73.69;99951.75;5066348;28;8980;-72
2023/10/16 05:00:54;;;;;;;;;47.75;40.00;;;;;6.96;71.45;99946.72;5026037;28;8826;-75
2023/10/16 05:03:23;;;;;;;;;30.80;30.00;;;;;7.11;69.81;99948.47;5026983;28;8946;-74
2023/10/16 05:06:05;;;;;;;;;27.60;27.40;;;;;6.80;70.38;99951.06;5009825;28;9077;-77
2023/10/16 05:08:59;;;;;;;;;23.40;22.80;;;;;6.93;70.51;99944.13;5025294;28;8836;-71
2023/10/16 05:11:33;;;;;;;;;25.20;24.00;;;;;7.11;69.96;99952.84;4993650;28;8868;-76
2023/10/16 05:17:06;;;;;;;;;28.20;28.00;;;;;6.32;71.62;99955.28;5010273;28;8860;-78
2023/10/16 05:19:46;;;;;;;;;30.20;29.60;;;;;6.10;72.67;99962.19;5026032;28;8858;-72
2023/10/16 06:15:20;;;;;;;;;28.40;27.40;;;;;6.95;68.16;100007.72;5005410;28;8870;-70
2023/10/16 06:17:51;;;;;;;;;29.40;26.60;;;;;6.56;70.88;100011.94;5005081;28;8862;-75
2023/10/16 06:20:21;;;;;;;;;30.00;27.40;;;;;6.22;71.14;100010.97;4989269;28;8870;-75
2023/10/16 06:22:52;;;;;;;;;33.40;26.20;;;;;6.10;71.83;100019.63;4995047;28;8970;-69
2023/10/16 06:25:28;;;;;;;;;28.40;23.80;;;;;5.89;72.21;100025.59;5052876;28;8875;-72
2023/10/16 06:27:59;;;;;;;;;29.20;27.80;;;;;5.77;73.37;100023.75;5057083;28;8864;-73
2023/10/16 06:30:28;;;;;;;;;30.20;27.20;;;;;6.11;72.23;100021.34;5018816;28;8867;-74
2023/10/16 06:33:02;;;;;;;;;28.40;28.40;;;;;5.95;72.95;100037.81;5068718;28;8843;-77
2023/10/16 06:35:31;;;;;;;;;28.00;25.80;;;;;5.21;75.17;100038.09;5070102;28;8951;-73
2023/10/16 06:38:00;;;;;;;;;27.00;21.00;;;;;5.17;75.15;100035.44;5084890;28;8875;-75
2023/10/16 06:40:32;;;;;;;;;29.40;24.80;;;;;5.47;74.59;100037.47;5084885;28;8859;-71
2023/10/16 06:43:10;;;;;;;;;28.20;25.60;;;;;5.38;74.89;100042.59;5088018;27;8898;-74
2023/10/16 06:45:42;;;;;;;;;24.00;24.00;;;;;5.56;73.88;100028.84;5122707;27;8853;-73
2023/10/16 06:48:14;;;;;;;;;29.60;25.80;;;;;5.84;73.23;100042.94;5128360;27;8862;-73
2023/10/16 06:50:53;;;;;;;;;23.80;22.80;;;;;6.39;70.80;100043.22;5111314;27;8879;-72
2023/10/16 06:53:23;;;;;;;;;22.00;21.40;;;;;6.32;70.27;100051.91;5084782;28;8863;-73
2023/10/16 06:55:53;;;;;;;;;23.80;22.80;;;;;6.42;70.31;100048.47;5085028;28;8818;-74
2023/10/16 06:58:22;;;;;;;;;28.40;24.80;;;;;5.93;72.04;100051.69;5073869;28;8847;-73
2023/10/16 07:00:55;;;;;;;;;27.40;27.00;;;;;6.65;69.93;100052.91;5076487;28;8931;-72
2023/10/16 07:03:25;;;;;;;;;29.00;24.20;;;;;6.04;71.72;100050.88;5087003;28;9073;-72
2023/10/16 07:05:54;;;;;;;;;21.60;21.20;;;;;5.90;71.87;100061.25;5048707;28;8913;-71
2023/10/16 07:08:22;;;;;;;;;20.40;17.00;;;;;5.49;73.12;100065.31;5087037;28;8963;-73
2023/10/16 07:10:56;;;;;;;;;20.60;18.40;;;;;5.38;73.30;100069.56;5088352;28;8844;-72
2023/10/16 07:13:29;;;;;;;;;23.60;21.80;;;;;5.56;73.39;100065.34;5104122;28;8891;-71
2023/10/16 07:16:01;;;;;;;;;22.60;20.80;;;;;5.98;71.86;100061.28;5105379;28;8844;-74
2023/10/16 07:18:33;;;;;;;;;22.40;19.60;;;;;6.56;70.46;100065.94;5104912;28;9648;-72
2023/10/16 07:21:08;;;;;;;;;17.20;16.60;;;;;6.77;69.43;100066.00;5104679;28;8869;-74
2023/10/16 07:23:39;;;;;;;;;23.60;23.00;;;;;6.85;68.65;100060.78;5109779;27;8836;-74
2023/10/16 07:26:10;;;;;;;;;23.60;19.00;;;;;7.19;66.62;100068.72;5152625;27;8851;-74
2023/10/16 07:28:39;;;;;;;;;19.00;17.00;;;;;7.48;65.85;100071.38;5133845;27;8856;-72
2023/10/16 07:31:10;;;;;;;;;19.40;15.20;;;;;7.84;64.16;100070.50;5153064;27;8828;-74
2023/10/16 07:33:41;;;;;;;;;14.40;13.40;;;;;6.84;66.06;100088.66;5152661;27;9606;-73
2023/10/16 07:36:14;;;;;;;;;15.20;12.60;;;;;6.80;65.63;100075.59;5134109;27;8878;-74
2023/10/16 07:38:42;;;;;;;;;15.20;14.80;;;;;7.06;65.70;100073.06;5143228;27;8864;-70
2023/10/16 07:41:18;;;;;;;;;11.80;11.40;;;;;7.35;65.27;100070.50;5142737;27;8816;-72
2023/10/16 07:43:47;;;;;;;;;14.00;14.00;;;;;7.32;64.54;100072.25;5124692;27;8972;-71
2023/10/16 07:46:28;;;;;;;;;18.00;15.80;;;;;7.36;63.95;100073.97;5152011;27;8935;-73
2023/10/16 07:49:01;;;;;;;;;15.80;14.80;;;;;7.10;65.16;100082.69;5152696;27;8970;-74
2023/10/16 07:51:31;;;;;;;;;15.40;15.20;;;;;6.74;64.76;100091.25;5118617;27;8857;-76
2023/10/16 07:54:00;;;;;;;;;15.20;14.20;;;;;6.47;64.82;100090.25;5140784;27;9575;-75
2023/10/16 07:56:32;;;;;;;;;14.80;14.40;;;;;5.98;66.76;100087.38;5151508;27;9618;-75
2023/10/16 07:59:19;;;;;;;;;16.00;14.00;;;;;5.89;66.91;100089.09;5138169;27;8897;-73
2023/10/16 08:02:17;;;;;;;;;20.20;18.00;;;;;5.84;67.99;100092.53;5129916;27;8858;-72
2023/10/16 08:04:51;;;;;;;;;18.60;16.60;;;;;6.26;67.46;100099.72;5137768;27;8996;-75
2023/10/16 08:07:40;;;;;;;;;19.20;18.00;;;;;6.47;64.96;100103.31;5130716;27;8846;-72
2023/10/16 08:13:11;;;;;;;;;17.60;17.60;;;;;7.28;63.61;100089.66;5067013;28;8834;-72
2023/10/16 08:15:44;;;;;;;;;26.20;22.40;;;;;6.99;63.39;100102.69;5037360;28;8854;-71
2023/10/16 08:18:14;;;;;;;;;17.00;15.20;;;;;6.45;64.80;100105.06;5067605;28;8833;-71
2023/10/16 08:21:05;;;;;;;;;19.40;17.80;;;;;6.54;65.23;100091.19;5062832;28;8872;-73
2023/10/16 08:23:38;;;;;;;;;19.80;19.80;;;;;6.75;64.41;100098.22;5062699;28;8856;-72
2023/10/16 08:26:14;;;;;;;;;24.00;21.20;;;;;6.92;62.71;100098.31;5067529;28;8857;-74
2023/10/16 08:28:46;;;;;;;;;24.80;20.80;;;;;7.18;62.23;100101.00;5067409;28;8822;-73
2023/10/16 08:31:31;;;;;;;;;18.80;18.80;;;;;7.02;62.01;100093.13;5050697;28;8924;-71
2023/10/16 08:34:00;;;;;;;;;21.40;20.40;;;;;7.38;62.33;100096.66;5067324;28;8830;-71
2023/10/16 08:36:29;;;;;;;;;21.40;21.40;;;;;7.02;62.41;100095.75;5066621;28;8919;-72
2023/10/16 08:39:08;;;;;;;;;18.20;16.60;;;;;6.65;62.76;100094.72;5067054;28;8837;-73
2023/10/16 08:41:45;;;;;;;;;17.20;15.60;;;;;6.40;64.00;100085.88;5067326;28;9962;-73
2023/10/16 08:44:17;;;;;;;;;19.00;18.00;;;;;7.01;62.71;100087.88;5067262;28;8857;-74
2023/10/16 08:46:53;;;;;;;;;20.00;19.60;;;;;7.56;60.13;100093.19;5067170;28;8829;-71
2023/10/16 08:49:23;;;;;;;;;19.00;19.00;;;;;7.42;60.16;100093.19;5038528;27;8927;-76
2023/10/16 08:51:54;;;;;;;;;19.40;19.00;;;;;7.62;59.68;100092.31;5151410;27;8939;-73
2023/10/16 08:55:00;;;;;;;;;18.20;18.20;;;;;7.95;59.15;100106.22;5098316;27;8890;-72
2023/10/16 08:57:31;;;;;;;;;22.40;19.60;;;;;8.28;58.19;100102.69;5151403;27;8865;-77
2023/10/16 09:00:10;;;;;;;;;20.20;19.20;;;;;7.95;58.88;100099.28;5151637;27;8992;-76
2023/10/16 09:02:40;;;;;;;;;22.60;20.00;;;;;8.01;58.36;100095.78;5130835;27;8865;-77
2023/10/16 09:05:09;;;;;;;;;20.60;19.00;;;;;7.79;59.76;100097.53;5066526;27;8868;-78
2023/10/16 09:07:39;;;;;;;;;21.60;20.00;;;;;8.14;58.15;100096.63;5133029;27;8859;-77
2023/10/16 09:10:10;;;;;;;;;19.40;18.40;;;;;7.79;58.95;100097.53;5102913;27;8857;-74
2023/10/16 09:12:52;;;;;;;;;16.60;15.60;;;;;7.36;59.29;100111.50;5101640;27;8836;-76
2023/10/16 09:15:24;;;;;;;;;17.00;15.60;;;;;7.44;59.36;100109.75;5132684;27;8847;-78
2023/10/16 09:17:54;;;;;;;;;15.80;15.80;;;;;8.04;57.77;100101.88;5146111;27;8945;-80
2023/10/16 09:20:33;;;;;;;;;17.20;16.40;;;;;8.10;57.56;100102.72;5129602;27;8860;-77
2023/10/16 09:23:03;;;;;;;;;20.20;17.20;;;;;8.34;56.42;100105.31;5130553;27;9031;-79
2023/10/16 09:25:33;;;;;;;;;21.80;18.80;;;;;7.75;57.99;100114.97;5130863;27;8857;-76
2023/10/16 09:28:07;;;;;;;;;19.40;18.00;;;;;7.74;58.83;100115.88;5130717;27;8885;-77
2023/10/16 09:30:37;;;;;;;;;18.00;16.40;;;;;7.64;59.46;100114.09;5155386;27;8901;-73
2023/10/16 09:33:06;;;;;;;;;19.00;16.40;;;;;8.34;59.16;100118.41;5134651;27;9629;-75
2023/10/16 09:35:43;;;;;;;;;10.00;10.00;;;;;8.25;57.34;100108.81;5093167;27;8849;-73
2023/10/16 09:38:17;;;;;;;;;15.80;15.40;;;;;8.23;58.21;100112.28;5150250;27;8855;-74
2023/10/16 09:41:37;;;;;;;;;10.00;10.00;;;;;8.33;56.82;100111.44;5096769;27;8828;-75
2023/10/16 09:43:56;;;;;;;;;17.40;17.00;;;;;8.32;57.25;100114.06;5132102;27;8855;-77
2023/10/16 09:46:52;;;;;;;;;21.60;21.00;;;;;8.91;55.98;100115.56;5150545;27;8851;-76
2023/10/16 09:49:23;;;;;;;;;15.40;14.60;;;;;8.14;56.86;100112.34;5149757;27;8843;-77
2023/10/16 09:52:03;;;;;;;;;16.40;15.80;;;;;7.96;58.38;100111.47;5115237;27;8828;-76
2023/10/16 09:54:35;;;;;;;;;15.60;15.60;;;;;8.27;57.35;100106.19;5150358;27;8969;-75
2023/10/16 09:57:09;;;;;;;;;21.60;18.40;;;;;8.38;57.77;100100.94;5068399;28;8841;-76
2023/10/16 09:59:40;;;;;;;;;16.20;16.20;;;;;8.48;57.69;100096.53;5051214;28;8818;-77
2023/10/16 10:02:18;;;;;;;;;16.60;16.00;;;;;8.70;56.20;100095.56;5084778;28;8864;-77
2023/10/16 10:04:53;;;;;;;;;13.00;13.00;;;;;8.58;55.75;100099.13;5072890;28;8926;-78
2023/10/16 10:07:34;;;;;;;;;14.60;13.40;;;;;8.67;55.23;100100.84;5066270;28;8864;-75
2023/10/16 10:12:53;;;;;;;;;14.40;14.20;;;;;9.17;55.73;100089.22;5065973;28;8924;-74
2023/10/16 10:15:26;;;;;;;;;15.80;15.40;;;;;9.10;54.49;100086.63;5050840;28;9598;-78
2023/10/16 10:18:32;;;;;;;;;17.40;13.60;;;;;9.12;54.17;100090.13;5052879;28;8862;-78
2023/10/16 10:20:48;;;;;;;;;12.00;12.00;;;;;9.02;54.63;100079.69;5082511;28;8930;-74
2023/10/16 10:23:17;;;;;;;;;13.00;12.60;;;;;8.52;55.29;100080.81;5085323;28;8849;-73
2023/10/16 10:25:47;;;;;;;;;10.40;9.80;;;;;8.32;54.39;100074.78;5085547;28;8824;-77
2023/10/16 10:28:25;;;;;;;;;15.40;13.20;;;;;8.07;54.73;100078.28;5085445;28;8861;-76
2023/10/16 10:31:02;;;;;;;;;13.80;13.00;;;;;7.98;55.39;100078.31;5067994;28;8858;-75
2023/10/16 10:33:43;;;;;;;;;15.00;15.00;;;;;8.39;55.08;100073.88;5069027;28;8877;-75
2023/10/16 10:36:34;;;;;;;;;14.60;14.60;;;;;8.77;54.99;100071.09;5107162;28;8849;-73
2023/10/16 10:39:38;;;;;;;;;14.00;13.20;;;;;9.68;53.53;100059.97;5108044;27;8849;-72
2023/10/16 10:42:10;;;;;;;;;17.80;17.80;;;;;10.13;53.12;100064.81;5107857;28;9657;-72
2023/10/16 10:44:44;;;;;;;;;18.20;17.00;;;;;10.73;51.06;100061.47;5107342;28;8905;-73
2023/10/16 10:47:20;;;;;;;;;19.60;19.60;;;;;11.35;49.91;100056.19;5054852;28;8889;-73
2023/10/16 10:49:58;;;;;;;;;15.40;15.40;;;;;11.43;46.60;100046.41;5094598;28;8836;-74
2023/10/16 10:52:32;;;;;;;;;18.20;17.60;;;;;11.15;47.53;100044.22;5087368;28;8860;-74
2023/10/16 10:55:08;;;;;;;;;20.60;20.60;;;;;11.24;46.94;100040.59;5093402;28;8867;-75
2023/10/16 10:57:39;;;;;;;;;17.40;16.40;;;;;11.03;47.05;100047.03;5087961;28;8859;-74
2023/10/16 11:00:43;;;;;;;;;12.80;12.80;;;;;10.02;49.40;100044.75;5090313;28;8932;-72
2023/10/16 11:03:22;;;;;;;;;13.80;13.80;;;;;9.55;50.81;100038.19;5088770;28;8850;-71
2023/10/16 11:05:55;;;;;;;;;15.20;14.80;;;;;9.30;51.72;100041.91;5054872;28;8804;-71
2023/10/16 11:08:29;;;;;;;;;17.80;16.20;;;;;9.34;52.50;100041.00;5087814;28;8988;-74
2023/10/16 11:11:03;;;;;;;;;18.40;16.80;;;;;9.38;52.12;100040.09;5082288;28;8878;-75
2023/10/16 11:13:32;;;;;;;;;15.00;15.00;;;;;9.48;51.61;100039.16;5081570;28;8884;-69
2023/10/16 11:16:01;;;;;;;;;19.20;17.00;;;;;9.71;51.05;100035.47;5071798;28;8854;-72
2023/10/16 11:18:31;;;;;;;;;19.00;17.60;;;;;9.23;51.04;100031.47;5038949;28;8992;-74
2023/10/16 11:21:04;;;;;;;;;21.40;17.40;;;;;8.99;52.41;100029.03;5044084;28;9040;-74
2023/10/16 11:23:38;;;;;;;;;17.20;17.20;;;;;9.08;52.47;100031.56;5070316;28;8856;-71
2023/10/16 11:26:13;;;;;;;;;18.60;18.00;;;;;8.94;53.05;100034.28;5088758;28;8849;-74
2023/10/16 11:28:48;;;;;;;;;16.00;16.00;;;;;8.96;51.88;100026.41;5086194;28;8982;-72
2023/10/16 11:31:19;;;;;;;;;19.80;18.20;;;;;9.10;50.53;100023.69;5106530;28;8867;-71
2023/10/16 11:34:02;;;;;;;;;19.60;18.80;;;;;8.96;50.54;100022.03;5100012;28;8844;-75
2023/10/16 11:36:35;;;;;;;;;14.20;14.20;;;;;8.74;51.48;100020.44;5112657;27;8833;-72
2023/10/16 11:39:19;;;;;;;;;23.20;23.00;;;;;9.11;50.62;100014.97;5091707;28;9417;-70
2023/10/16 11:41:51;;;;;;;;;15.40;15.40;;;;;8.82;50.90;100006.41;5055146;28;8890;-72
2023/10/16 11:44:26;;;;;;;;;17.00;14.80;;;;;9.15;49.59;100001.78;5078907;28;8890;-74
2023/10/16 11:47:00;;;;;;;;;16.60;15.60;;;;;9.75;48.92;99988.16;5055992;28;8856;-78
2023/10/16 11:49:35;;;;;;;;;24.40;23.00;;;;;9.44;48.82;99992.81;5108732;28;9604;-75
2023/10/16 11:52:19;;;;;;;;;17.60;17.40;;;;;9.47;49.40;99986.69;5091949;28;8840;-75
2023/10/16 11:54:53;;;;;;;;;20.40;19.00;;;;;9.58;49.42;99992.72;5091942;28;8946;-75
2023/10/16 11:57:23;;;;;;;;;17.20;16.20;;;;;9.27;49.41;99985.06;5093058;28;8837;-75
2023/10/16 11:59:52;;;;;;;;;18.40;18.40;;;;;9.13;50.07;99977.34;5087280;28;8966;-75
2023/10/16 12:02:22;;;;;;;;;19.40;17.80;;;;;9.14;50.58;99978.19;5087671;28;8892;-78
2023/10/16 12:04:51;;;;;;;;;23.00;21.40;;;;;9.61;49.97;99977.81;5097816;28;8896;-75
2023/10/16 12:07:22;;;;;;;;;21.60;20.60;;;;;9.29;50.40;99970.22;5083953;28;8858;-78
2023/10/16 12:09:52;;;;;;;;;18.00;17.60;;;;;9.20;50.81;99973.78;5094246;28;8904;-78
2023/10/16 12:12:24;;;;;;;;;19.00;18.20;;;;;9.33;49.74;99974.56;5075304;27;8864;-75
2023/10/16 12:14:54;;;;;;;;;22.00;18.00;;;;;9.30;49.97;99973.72;5128144;27;8833;-77
2023/10/16 12:17:24;;;;;;;;;20.00;20.00;;;;;9.41;49.39;99971.84;5125653;27;8835;-75
2023/10/16 12:19:53;;;;;;;;;15.40;15.40;;;;;9.87;48.70;99971.41;5131450;27;8886;-76
2023/10/16 12:22:23;;;;;;;;;13.60;13.60;;;;;9.55;48.81;99964.69;5110455;27;8855;-77
2023/10/16 12:24:52;;;;;;;;;18.40;18.20;;;;;9.93;48.04;99965.22;5110735;28;8991;-77
2023/10/16 12:27:21;;;;;;;;;18.00;17.20;;;;;9.75;47.43;99963.69;5111393;28;8833;-77
2023/10/16 12:29:50;;;;;;;;;13.20;13.20;;;;;10.24;47.58;99954.34;5116435;27;8830;-77
2023/10/16 12:32:19;;;;;;;;;13.40;13.40;;;;;10.12;46.03;99953.63;5132494;27;8823;-75
2023/10/16 12:34:49;;;;;;;;;17.00;14.40;;;;;10.43;45.82;99942.69;5142284;27;8831;-76
2023/10/16 12:37:22;;;;;;;;;13.00;13.00;;;;;10.17;45.02;99946.53;5116883;27;8839;-77
2023/10/16 12:39:55;;;;;;;;;11.00;10.00;;;;;10.37;44.68;99941.03;5151004;27;8902;-73
2023/10/16 12:42:24;;;;;;;;;12.20;12.20;;;;;11.03;45.66;99941.81;5121585;27;8854;-76
2023/10/16 12:44:54;;;;;;;;;11.40;11.40;;;;;10.35;43.72;99949.81;5094755;27;8857;-78
2023/10/16 12:47:23;;;;;;;;;19.00;18.60;;;;;10.88;43.58;99937.69;5131443;27;9621;-76
2023/10/16 12:50:11;;;;;;;;;13.80;13.00;;;;;11.25;43.45;99928.28;5135660;27;8846;-73
2023/10/16 12:52:42;;;;;;;;;14.60;14.60;;;;;11.72;42.70;99921.28;5142999;27;9033;-74
2023/10/16 12:55:12;;;;;;;;;16.80;15.40;;;;;11.67;41.01;99923.13;5082740;27;8861;-73
2023/10/16 12:57:48;;;;;;;;;16.00;14.80;;;;;12.10;41.06;99927.56;5130561;27;8945;-76
2023/10/16 13:00:19;;;;;;;;;14.60;12.00;;;;;12.44;42.46;99929.47;5129085;27;8837;-76
2023/10/16 13:02:49;;;;;;;;;12.80;12.00;;;;;12.80;41.50;99921.59;5086034;27;8843;-72
2023/10/16 13:05:19;;;;;;;;;12.00;10.20;;;;;12.99;39.93;99916.75;5136944;27;8947;-78
2023/10/16 13:07:50;;;;;;;;;8.00;8.00;;;;;13.07;40.52;99912.16;5149474;27;8823;-74
2023/10/16 13:10:27;;;;;;;;;10.20;8.00;;;;;13.36;40.36;99911.41;5150331;27;8851;-74
2023/10/16 13:12:59;;;;;;;;;15.20;14.00;;;;;13.52;39.89;99906.56;5150995;27;8847;-74
2023/10/16 13:15:29;;;;;;;;;9.00;9.00;;;;;13.66;39.76;99907.06;5109778;27;8964;-71
2023/10/16 13:18:00;;;;;;;;;13.00;10.00;;;;;13.81;39.82;99907.53;5126805;27;8852;-71